Аэропорт: Нальчик. Нальчик

ICAO: URMN

METAR:
2019/05/26 14:00
URMN 261400Z 08001MPS 9999 FEW///CB SCT/// 19/14 Q1014 R24/010070 NOSIG RMK QFE724
METAR:
2018/11/19 18:33
TAF 
      AMD TAF 
      AMD URMN 191805Z 1918/2006 06003MPS 0400 FG OVC002 
      TEMPO 1918/2003 1000 BR OVC004